Terminal Aerodrome Forecast
Issued by NWS

Home | Current Version | Previous Version | Text Only | Print | Product List | Glossary On
Versions: 1 2 3 4 5 6 7 8 9 10 11 12 13 14 15 16 17 18 19 20 21 22
000
FTUS45 KABQ 292300
TAFLVS
TAF
KLVS 292338Z 3000/3024 22010KT P6SM VCSH SCT070 BKN110
     FM300600 VRB06KT P6SM SCT100
     FM302100 12010KT P6SM VCSH SCT070
     FM302300 07011G18KT P6SM VCTS BKN050CB=

USA.gov is the U.S. government's official web portal to all federal, state and local government web resources and services.